sensor_id;sensor_type;location;lat;lon;timestamp;pressure;altitude;pressure_sealevel;temperature;humidity
79686;BME280;69153;47.918;11.428;2023-04-25T00:01:22;94520.91;;;11.18;51.37
79686;BME280;69153;47.918;11.428;2023-04-25T00:03:48;94515.16;;;11.20;50.32
79686;BME280;69153;47.918;11.428;2023-04-25T00:06:14;94520.16;;;11.18;50.90
79686;BME280;69153;47.918;11.428;2023-04-25T00:08:40;94517.97;;;11.16;50.46
79686;BME280;69153;47.918;11.428;2023-04-25T00:11:05;94518.53;;;11.11;50.69
79686;BME280;69153;47.918;11.428;2023-04-25T00:13:31;94525.53;;;11.05;51.08
79686;BME280;69153;47.918;11.428;2023-04-25T00:15:56;94522.00;;;10.99;51.50
79686;BME280;69153;47.918;11.428;2023-04-25T00:18:23;94522.31;;;11.01;52.00
79686;BME280;69153;47.918;11.428;2023-04-25T00:20:49;94521.97;;;10.90;52.51
79686;BME280;69153;47.918;11.428;2023-04-25T00:23:16;94524.72;;;10.86;52.35
79686;BME280;69153;47.918;11.428;2023-04-25T00:25:47;94529.41;;;10.82;52.81
79686;BME280;69153;47.918;11.428;2023-04-25T00:28:13;94520.28;;;10.83;52.81
79686;BME280;69153;47.918;11.428;2023-04-25T00:30:40;94516.03;;;10.86;52.48
79686;BME280;69153;47.918;11.428;2023-04-25T00:33:06;94519.44;;;10.86;52.30
79686;BME280;69153;47.918;11.428;2023-04-25T00:35:31;94516.78;;;10.86;52.64
79686;BME280;69153;47.918;11.428;2023-04-25T00:37:57;94510.13;;;10.82;53.34
79686;BME280;69153;47.918;11.428;2023-04-25T00:40:22;94521.72;;;10.75;52.82
79686;BME280;69153;47.918;11.428;2023-04-25T00:42:48;94532.03;;;10.73;53.64
79686;BME280;69153;47.918;11.428;2023-04-25T00:45:14;94518.28;;;10.65;53.77
79686;BME280;69153;47.918;11.428;2023-04-25T00:47:41;94509.84;;;10.58;53.91
79686;BME280;69153;47.918;11.428;2023-04-25T00:50:08;94512.59;;;10.54;54.65
79686;BME280;69153;47.918;11.428;2023-04-25T00:52:34;94524.81;;;10.52;54.27
79686;BME280;69153;47.918;11.428;2023-04-25T00:55:00;94521.13;;;10.49;54.92
79686;BME280;69153;47.918;11.428;2023-04-25T00:57:26;94510.97;;;10.48;54.44
79686;BME280;69153;47.918;11.428;2023-04-25T00:59:52;94507.81;;;10.40;54.72
79686;BME280;69153;47.918;11.428;2023-04-25T01:02:19;94513.25;;;10.36;55.23
79686;BME280;69153;47.918;11.428;2023-04-25T01:04:46;94506.63;;;10.41;55.30
79686;BME280;69153;47.918;11.428;2023-04-25T01:07:12;94515.31;;;10.42;55.13
79686;BME280;69153;47.918;11.428;2023-04-25T01:09:39;94505.03;;;10.44;54.74
79686;BME280;69153;47.918;11.428;2023-04-25T01:12:04;94507.81;;;10.40;55.04
79686;BME280;69153;47.918;11.428;2023-04-25T01:14:30;94502.66;;;10.36;54.89
79686;BME280;69153;47.918;11.428;2023-04-25T01:16:56;94502.50;;;10.40;55.15
79686;BME280;69153;47.918;11.428;2023-04-25T01:19:21;94499.00;;;10.43;55.38
79686;BME280;69153;47.918;11.428;2023-04-25T01:21:47;94496.34;;;10.43;54.76
79686;BME280;69153;47.918;11.428;2023-04-25T01:24:13;94492.22;;;10.42;54.80
79686;BME280;69153;47.918;11.428;2023-04-25T01:26:41;94491.19;;;10.39;54.83
79686;BME280;69153;47.918;11.428;2023-04-25T01:29:10;94500.00;;;10.36;55.00
79686;BME280;69153;47.918;11.428;2023-04-25T01:31:36;94502.44;;;10.31;54.75
79686;BME280;69153;47.918;11.428;2023-04-25T01:34:01;94499.63;;;10.25;54.76
79686;BME280;69153;47.918;11.428;2023-04-25T01:36:28;94494.56;;;10.18;54.58
79686;BME280;69153;47.918;11.428;2023-04-25T01:38:53;94497.66;;;10.04;55.15
79686;BME280;69153;47.918;11.428;2023-04-25T01:41:19;94488.66;;;10.01;54.96
79686;BME280;69153;47.918;11.428;2023-04-25T01:43:45;94485.53;;;9.94;55.09
79686;BME280;69153;47.918;11.428;2023-04-25T01:46:12;94492.09;;;9.89;55.21
79686;BME280;69153;47.918;11.428;2023-04-25T01:48:37;94491.59;;;9.82;55.07
79686;BME280;69153;47.918;11.428;2023-04-25T01:51:03;94487.16;;;9.79;55.19
79686;BME280;69153;47.918;11.428;2023-04-25T01:53:29;94485.78;;;9.74;55.41
79686;BME280;69153;47.918;11.428;2023-04-25T01:55:54;94487.81;;;9.70;55.31
79686;BME280;69153;47.918;11.428;2023-04-25T01:58:20;94490.25;;;9.64;55.15
79686;BME280;69153;47.918;11.428;2023-04-25T02:00:46;94491.25;;;9.58;55.37
79686;BME280;69153;47.918;11.428;2023-04-25T02:03:11;94491.75;;;9.53;56.00
79686;BME280;69153;47.918;11.428;2023-04-25T02:05:38;94496.13;;;9.47;55.92
79686;BME280;69153;47.918;11.428;2023-04-25T02:08:06;94499.94;;;9.46;55.93
79686;BME280;69153;47.918;11.428;2023-04-25T02:10:32;94494.84;;;9.39;56.10
79686;BME280;69153;47.918;11.428;2023-04-25T02:12:58;94496.75;;;9.25;56.71
79686;BME280;69153;47.918;11.428;2023-04-25T02:15:23;94497.31;;;9.20;56.96
79686;BME280;69153;47.918;11.428;2023-04-25T02:17:49;94495.28;;;9.12;57.27
79686;BME280;69153;47.918;11.428;2023-04-25T02:20:14;94496.56;;;9.07;57.60
79686;BME280;69153;47.918;11.428;2023-04-25T02:22:41;94492.88;;;9.05;57.30
79686;BME280;69153;47.918;11.428;2023-04-25T02:25:08;94494.22;;;9.09;57.84
79686;BME280;69153;47.918;11.428;2023-04-25T02:27:34;94495.59;;;9.14;57.02
79686;BME280;69153;47.918;11.428;2023-04-25T02:30:00;94488.00;;;9.16;57.37
79686;BME280;69153;47.918;11.428;2023-04-25T02:32:25;94484.41;;;9.10;58.23
79686;BME280;69153;47.918;11.428;2023-04-25T02:34:52;94489.06;;;8.93;54.71
79686;BME280;69153;47.918;11.428;2023-04-25T02:37:17;94484.41;;;9.10;54.48
79686;BME280;69153;47.918;11.428;2023-04-25T02:39:43;94470.03;;;8.98;55.12
79686;BME280;69153;47.918;11.428;2023-04-25T02:42:08;94472.97;;;9.13;54.24
79686;BME280;69153;47.918;11.428;2023-04-25T02:44:33;94472.47;;;9.18;53.23
79686;BME280;69153;47.918;11.428;2023-04-25T02:46:59;94476.47;;;9.22;52.65
79686;BME280;69153;47.918;11.428;2023-04-25T02:49:24;94478.28;;;9.00;52.16
79686;BME280;69153;47.918;11.428;2023-04-25T02:51:50;94480.81;;;9.16;52.40
79686;BME280;69153;47.918;11.428;2023-04-25T02:54:15;94472.19;;;9.50;51.89
79686;BME280;69153;47.918;11.428;2023-04-25T02:56:41;94471.75;;;9.64;51.23
79686;BME280;69153;47.918;11.428;2023-04-25T02:59:06;94473.81;;;9.82;51.00
79686;BME280;69153;47.918;11.428;2023-04-25T03:01:32;94475.25;;;9.96;50.47
79686;BME280;69153;47.918;11.428;2023-04-25T03:03:57;94464.84;;;10.01;50.03
79686;BME280;69153;47.918;11.428;2023-04-25T03:06:22;94467.06;;;10.03;49.80
79686;BME280;69153;47.918;11.428;2023-04-25T03:08:48;94459.03;;;10.07;50.10
79686;BME280;69153;47.918;11.428;2023-04-25T03:11:13;94462.88;;;10.15;49.38
79686;BME280;69153;47.918;11.428;2023-04-25T03:13:39;94453.16;;;10.24;49.49
79686;BME280;69153;47.918;11.428;2023-04-25T03:16:04;94463.38;;;10.35;49.99
79686;BME280;69153;47.918;11.428;2023-04-25T03:18:30;94480.72;;;10.36;51.81
79686;BME280;69153;47.918;11.428;2023-04-25T03:20:56;94480.94;;;10.07;52.47
79686;BME280;69153;47.918;11.428;2023-04-25T03:23:21;94492.63;;;9.50;52.20
79686;BME280;69153;47.918;11.428;2023-04-25T03:25:46;94503.53;;;9.14;53.97
79686;BME280;69153;47.918;11.428;2023-04-25T03:28:12;94524.16;;;9.19;54.77
79686;BME280;69153;47.918;11.428;2023-04-25T03:30:37;94519.19;;;9.21;54.99
79686;BME280;69153;47.918;11.428;2023-04-25T03:33:03;94519.63;;;9.32;54.75
79686;BME280;69153;47.918;11.428;2023-04-25T03:35:28;94512.53;;;9.04;54.93
79686;BME280;69153;47.918;11.428;2023-04-25T03:37:54;94515.59;;;9.02;56.35
79686;BME280;69153;47.918;11.428;2023-04-25T03:40:19;94518.44;;;9.33;55.32
79686;BME280;69153;47.918;11.428;2023-04-25T03:42:45;94504.88;;;9.56;54.55
79686;BME280;69153;47.918;11.428;2023-04-25T03:45:11;94493.88;;;9.58;54.28
79686;BME280;69153;47.918;11.428;2023-04-25T03:47:36;94487.88;;;9.45;54.19
79686;BME280;69153;47.918;11.428;2023-04-25T03:50:02;94489.88;;;9.41;54.29
79686;BME280;69153;47.918;11.428;2023-04-25T03:52:28;94483.03;;;9.18;54.88
79686;BME280;69153;47.918;11.428;2023-04-25T03:54:53;94475.53;;;9.29;55.44
79686;BME280;69153;47.918;11.428;2023-04-25T03:57:19;94462.00;;;9.02;55.65
79686;BME280;69153;47.918;11.428;2023-04-25T03:59:44;94464.13;;;8.69;56.43
79686;BME280;69153;47.918;11.428;2023-04-25T04:02:10;94464.69;;;8.18;57.98
79686;BME280;69153;47.918;11.428;2023-04-25T04:04:35;94453.81;;;8.45;56.99
79686;BME280;69153;47.918;11.428;2023-04-25T04:07:01;94460.84;;;8.77;56.82
79686;BME280;69153;47.918;11.428;2023-04-25T04:09:27;94458.38;;;8.70;56.82
79686;BME280;69153;47.918;11.428;2023-04-25T04:11:53;94455.47;;;8.93;56.24
79686;BME280;69153;47.918;11.428;2023-04-25T04:14:18;94456.19;;;8.94;55.32
79686;BME280;69153;47.918;11.428;2023-04-25T04:16:44;94450.38;;;9.12;55.99
79686;BME280;69153;47.918;11.428;2023-04-25T04:19:10;94459.56;;;9.32;55.62
79686;BME280;69153;47.918;11.428;2023-04-25T04:21:35;94452.69;;;9.22;54.77
79686;BME280;69153;47.918;11.428;2023-04-25T04:24:01;94465.03;;;9.38;54.63
79686;BME280;69153;47.918;11.428;2023-04-25T04:26:27;94484.88;;;9.55;54.65
79686;BME280;69153;47.918;11.428;2023-04-25T04:28:52;94504.22;;;9.65;55.04
79686;BME280;69153;47.918;11.428;2023-04-25T04:31:22;94522.63;;;9.68;53.93
79686;BME280;69153;47.918;11.428;2023-04-25T04:33:48;94502.91;;;9.10;55.66
79686;BME280;69153;47.918;11.428;2023-04-25T04:36:13;94483.25;;;9.11;56.31
79686;BME280;69153;47.918;11.428;2023-04-25T04:38:39;94464.44;;;9.21;56.50
79686;BME280;69153;47.918;11.428;2023-04-25T04:41:05;94471.41;;;9.28;56.21
79686;BME280;69153;47.918;11.428;2023-04-25T04:43:31;94469.50;;;9.28;54.92
79686;BME280;69153;47.918;11.428;2023-04-25T04:46:00;94474.38;;;9.17;55.13
79686;BME280;69153;47.918;11.428;2023-04-25T04:48:26;94474.34;;;9.30;55.13
79686;BME280;69153;47.918;11.428;2023-04-25T04:50:52;94484.38;;;9.22;54.56
79686;BME280;69153;47.918;11.428;2023-04-25T04:53:17;94482.28;;;9.30;54.91
79686;BME280;69153;47.918;11.428;2023-04-25T04:55:42;94479.81;;;9.48;55.20
79686;BME280;69153;47.918;11.428;2023-04-25T04:58:08;94479.59;;;9.55;54.65
79686;BME280;69153;47.918;11.428;2023-04-25T05:00:34;94492.53;;;9.41;54.64
79686;BME280;69153;47.918;11.428;2023-04-25T05:02:59;94485.09;;;9.48;54.66
79686;BME280;69153;47.918;11.428;2023-04-25T05:05:25;94491.13;;;9.49;54.78
79686;BME280;69153;47.918;11.428;2023-04-25T05:07:51;94487.44;;;9.59;55.03
79686;BME280;69153;47.918;11.428;2023-04-25T05:10:18;94474.50;;;9.61;53.76
79686;BME280;69153;47.918;11.428;2023-04-25T05:12:44;94478.34;;;9.60;54.04
79686;BME280;69153;47.918;11.428;2023-04-25T05:15:10;94484.16;;;9.55;54.32
79686;BME280;69153;47.918;11.428;2023-04-25T05:17:36;94485.06;;;9.61;54.27
79686;BME280;69153;47.918;11.428;2023-04-25T05:20:01;94484.09;;;9.33;54.87
79686;BME280;69153;47.918;11.428;2023-04-25T05:22:27;94485.59;;;9.21;56.22
79686;BME280;69153;47.918;11.428;2023-04-25T05:24:52;94479.66;;;9.17;56.42
79686;BME280;69153;47.918;11.428;2023-04-25T05:27:18;94480.81;;;9.16;55.63
79686;BME280;69153;47.918;11.428;2023-04-25T05:29:44;94485.03;;;8.88;56.33
79686;BME280;69153;47.918;11.428;2023-04-25T05:32:10;94479.28;;;8.52;58.98
79686;BME280;69153;47.918;11.428;2023-04-25T05:34:36;94478.88;;;8.24;59.56
79686;BME280;69153;47.918;11.428;2023-04-25T05:37:02;94472.03;;;8.56;58.55
79686;BME280;69153;47.918;11.428;2023-04-25T05:39:27;94473.41;;;8.86;58.67
79686;BME280;69153;47.918;11.428;2023-04-25T05:41:52;94474.69;;;9.07;57.46
79686;BME280;69153;47.918;11.428;2023-04-25T05:44:18;94471.41;;;9.15;57.62
79686;BME280;69153;47.918;11.428;2023-04-25T05:46:44;94475.28;;;9.36;57.38
79686;BME280;69153;47.918;11.428;2023-04-25T05:49:09;94470.75;;;9.37;57.34
79686;BME280;69153;47.918;11.428;2023-04-25T05:51:35;94472.13;;;9.41;56.81
79686;BME280;69153;47.918;11.428;2023-04-25T05:54:00;94467.31;;;9.61;56.35
79686;BME280;69153;47.918;11.428;2023-04-25T05:56:25;94460.53;;;9.73;56.18
79686;BME280;69153;47.918;11.428;2023-04-25T05:58:51;94452.66;;;9.82;55.56
79686;BME280;69153;47.918;11.428;2023-04-25T06:01:16;94454.88;;;9.84;55.94
79686;BME280;69153;47.918;11.428;2023-04-25T06:03:42;94456.63;;;9.99;55.56
79686;BME280;69153;47.918;11.428;2023-04-25T06:06:08;94452.66;;;10.04;55.00
79686;BME280;69153;47.918;11.428;2023-04-25T06:08:34;94454.63;;;10.13;54.56
79686;BME280;69153;47.918;11.428;2023-04-25T06:11:00;94455.09;;;10.11;54.42
79686;BME280;69153;47.918;11.428;2023-04-25T06:13:25;94453.59;;;10.10;55.62
79686;BME280;69153;47.918;11.428;2023-04-25T06:15:51;94452.66;;;10.04;55.91
79686;BME280;69153;47.918;11.428;2023-04-25T06:18:16;94459.28;;;9.99;55.44
79686;BME280;69153;47.918;11.428;2023-04-25T06:20:41;94451.97;;;9.91;55.80
79686;BME280;69153;47.918;11.428;2023-04-25T06:23:07;94461.88;;;9.78;55.73
79686;BME280;69153;47.918;11.428;2023-04-25T06:25:32;94462.06;;;9.83;54.94
79686;BME280;69153;47.918;11.428;2023-04-25T06:27:58;94457.59;;;9.93;55.72
79686;BME280;69153;47.918;11.428;2023-04-25T06:30:24;94457.56;;;9.71;55.77
79686;BME280;69153;47.918;11.428;2023-04-25T06:32:51;94452.09;;;9.87;56.72
79686;BME280;69153;47.918;11.428;2023-04-25T06:35:18;94452.53;;;10.20;55.63
79686;BME280;69153;47.918;11.428;2023-04-25T06:37:44;94459.22;;;10.56;54.95
79686;BME280;69153;47.918;11.428;2023-04-25T06:40:09;94450.63;;;10.73;54.11
79686;BME280;69153;47.918;11.428;2023-04-25T06:42:35;94458.56;;;10.73;53.17
79686;BME280;69153;47.918;11.428;2023-04-25T06:45:01;94456.47;;;10.99;53.97
79686;BME280;69153;47.918;11.428;2023-04-25T06:47:26;94462.44;;;11.22;52.65
79686;BME280;69153;47.918;11.428;2023-04-25T06:49:51;94454.69;;;11.45;51.37
79686;BME280;69153;47.918;11.428;2023-04-25T06:52:17;94458.69;;;11.50;51.93
79686;BME280;69153;47.918;11.428;2023-04-25T06:54:43;94456.16;;;11.56;52.15
79686;BME280;69153;47.918;11.428;2023-04-25T06:57:09;94457.38;;;11.55;52.01
79686;BME280;69153;47.918;11.428;2023-04-25T06:59:34;94458.41;;;11.66;51.46
79686;BME280;69153;47.918;11.428;2023-04-25T07:01:59;94460.59;;;11.59;51.09
79686;BME280;69153;47.918;11.428;2023-04-25T07:04:25;94460.28;;;11.48;51.49
79686;BME280;69153;47.918;11.428;2023-04-25T07:06:50;94459.28;;;11.54;51.49
79686;BME280;69153;47.918;11.428;2023-04-25T07:09:16;94455.91;;;11.72;50.86
79686;BME280;69153;47.918;11.428;2023-04-25T07:11:41;94461.50;;;11.74;51.50
79686;BME280;69153;47.918;11.428;2023-04-25T07:14:07;94457.56;;;11.78;50.88
79686;BME280;69153;47.918;11.428;2023-04-25T07:16:32;94456.09;;;11.87;50.99
79686;BME280;69153;47.918;11.428;2023-04-25T07:18:58;94450.09;;;11.28;50.81
79686;BME280;69153;47.918;11.428;2023-04-25T07:21:24;94448.03;;;11.32;51.00
79686;BME280;69153;47.918;11.428;2023-04-25T07:23:50;94441.53;;;11.33;50.55
79686;BME280;69153;47.918;11.428;2023-04-25T07:26:16;94439.97;;;11.04;51.23
79686;BME280;69153;47.918;11.428;2023-04-25T07:28:42;94444.31;;;11.20;52.15
79686;BME280;69153;47.918;11.428;2023-04-25T07:31:07;94437.75;;;10.94;53.35
79686;BME280;69153;47.918;11.428;2023-04-25T07:33:33;94445.53;;;10.88;51.85
79686;BME280;69153;47.918;11.428;2023-04-25T07:35:58;94436.78;;;10.79;52.74
79686;BME280;69153;47.918;11.428;2023-04-25T07:38:24;94436.41;;;10.58;53.42
79686;BME280;69153;47.918;11.428;2023-04-25T07:40:49;94438.31;;;10.89;52.83
79686;BME280;69153;47.918;11.428;2023-04-25T07:43:15;94429.13;;;11.12;50.92
79686;BME280;69153;47.918;11.428;2023-04-25T07:45:45;94437.41;;;11.32;50.32
79686;BME280;69153;47.918;11.428;2023-04-25T07:48:11;94433.31;;;11.40;51.65
79686;BME280;69153;47.918;11.428;2023-04-25T07:50:36;94428.63;;;11.53;49.86
79686;BME280;69153;47.918;11.428;2023-04-25T07:53:02;94429.41;;;11.99;50.34
79686;BME280;69153;47.918;11.428;2023-04-25T07:55:27;94425.09;;;12.29;49.26
79686;BME280;69153;47.918;11.428;2023-04-25T07:57:53;94422.38;;;12.47;47.53
79686;BME280;69153;47.918;11.428;2023-04-25T08:00:19;94420.31;;;12.51;46.56
79686;BME280;69153;47.918;11.428;2023-04-25T08:02:44;94420.31;;;12.94;45.58
79686;BME280;69153;47.918;11.428;2023-04-25T08:05:10;94418.44;;;12.85;45.15
79686;BME280;69153;47.918;11.428;2023-04-25T08:07:39;94411.69;;;13.08;46.41
79686;BME280;69153;47.918;11.428;2023-04-25T08:10:06;94410.94;;;12.74;43.46
79686;BME280;69153;47.918;11.428;2023-04-25T08:12:32;94410.63;;;12.30;43.69
79686;BME280;69153;47.918;11.428;2023-04-25T08:14:57;94420.69;;;12.08;44.34
79686;BME280;69153;47.918;11.428;2023-04-25T08:17:23;94418.03;;;12.17;43.95
79686;BME280;69153;47.918;11.428;2023-04-25T08:19:48;94416.97;;;12.33;43.81
79686;BME280;69153;47.918;11.428;2023-04-25T08:22:14;94420.81;;;12.32;43.73
79686;BME280;69153;47.918;11.428;2023-04-25T08:24:40;94420.06;;;12.40;43.01
79686;BME280;69153;47.918;11.428;2023-04-25T08:27:05;94422.31;;;12.14;43.70
79686;BME280;69153;47.918;11.428;2023-04-25T08:29:32;94421.38;;;12.36;43.82
79686;BME280;69153;47.918;11.428;2023-04-25T08:31:58;94422.47;;;12.71;43.03
79686;BME280;69153;47.918;11.428;2023-04-25T08:34:23;94431.41;;;12.92;43.00
79686;BME280;69153;47.918;11.428;2023-04-25T08:36:49;94421.34;;;12.96;43.29
79686;BME280;69153;47.918;11.428;2023-04-25T08:39:15;94429.38;;;13.20;42.87
79686;BME280;69153;47.918;11.428;2023-04-25T08:41:41;94437.28;;;13.62;41.74
79686;BME280;69153;47.918;11.428;2023-04-25T08:44:10;94431.81;;;13.80;40.16
79686;BME280;69153;47.918;11.428;2023-04-25T08:46:38;94432.72;;;14.01;39.56
79686;BME280;69153;47.918;11.428;2023-04-25T08:49:04;94429.78;;;14.28;39.94
79686;BME280;69153;47.918;11.428;2023-04-25T08:51:32;94431.75;;;14.43;39.07
79686;BME280;69153;47.918;11.428;2023-04-25T08:54:08;94436.59;;;14.15;38.35
79686;BME280;69153;47.918;11.428;2023-04-25T08:56:35;94432.19;;;14.26;38.16
79686;BME280;69153;47.918;11.428;2023-04-25T08:59:02;94436.69;;;14.35;38.84
79686;BME280;69153;47.918;11.428;2023-04-25T09:01:28;94437.25;;;14.39;37.70
79686;BME280;69153;47.918;11.428;2023-04-25T09:03:53;94433.41;;;14.55;39.52
79686;BME280;69153;47.918;11.428;2023-04-25T09:06:19;94432.84;;;14.36;38.24
79686;BME280;69153;47.918;11.428;2023-04-25T09:08:45;94426.53;;;14.63;36.40
79686;BME280;69153;47.918;11.428;2023-04-25T09:11:12;94428.63;;;15.23;36.76
79686;BME280;69153;47.918;11.428;2023-04-25T09:13:38;94421.69;;;14.96;35.27
79686;BME280;69153;47.918;11.428;2023-04-25T09:16:03;94430.09;;;14.45;35.46
79686;BME280;69153;47.918;11.428;2023-04-25T09:18:32;94432.09;;;14.36;37.24
79686;BME280;69153;47.918;11.428;2023-04-25T09:21:09;94436.19;;;14.07;37.51
79686;BME280;69153;47.918;11.428;2023-04-25T09:23:46;94443.28;;;13.72;36.32
79686;BME280;69153;47.918;11.428;2023-04-25T09:26:16;94442.94;;;14.32;36.79
79686;BME280;69153;47.918;11.428;2023-04-25T09:28:42;94437.03;;;15.92;34.69
79686;BME280;69153;47.918;11.428;2023-04-25T09:31:10;94437.75;;;16.64;33.67
79686;BME280;69153;47.918;11.428;2023-04-25T09:33:35;94444.16;;;16.47;33.17
79686;BME280;69153;47.918;11.428;2023-04-25T09:36:09;94440.53;;;16.50;33.64
79686;BME280;69153;47.918;11.428;2023-04-25T09:38:46;94448.81;;;16.26;33.55
79686;BME280;69153;47.918;11.428;2023-04-25T09:41:11;94457.94;;;15.73;32.55
79686;BME280;69153;47.918;11.428;2023-04-25T09:43:38;94454.44;;;14.68;33.78
79686;BME280;69153;47.918;11.428;2023-04-25T09:46:10;94459.13;;;14.43;35.02
79686;BME280;69153;47.918;11.428;2023-04-25T09:48:37;94461.81;;;14.58;35.23
79686;BME280;69153;47.918;11.428;2023-04-25T09:51:06;94456.03;;;14.59;36.53
79686;BME280;69153;47.918;11.428;2023-04-25T09:53:37;94465.78;;;14.48;35.96
79686;BME280;69153;47.918;11.428;2023-04-25T09:56:08;94461.75;;;14.52;35.21
79686;BME280;69153;47.918;11.428;2023-04-25T09:58:36;94458.28;;;14.22;36.15
79686;BME280;69153;47.918;11.428;2023-04-25T10:01:04;94464.28;;;13.70;35.69
79686;BME280;69153;47.918;11.428;2023-04-25T10:03:34;94459.34;;;13.77;35.60
79686;BME280;69153;47.918;11.428;2023-04-25T10:06:02;94456.94;;;14.42;36.23
79686;BME280;69153;47.918;11.428;2023-04-25T10:08:34;94458.09;;;15.14;34.13
79686;BME280;69153;47.918;11.428;2023-04-25T10:11:06;94457.53;;;15.45;33.67
79686;BME280;69153;47.918;11.428;2023-04-25T10:13:33;94455.53;;;15.75;32.44
79686;BME280;69153;47.918;11.428;2023-04-25T10:16:01;94450.09;;;16.10;31.84
79686;BME280;69153;47.918;11.428;2023-04-25T10:18:28;94451.06;;;16.59;32.64
79686;BME280;69153;47.918;11.428;2023-04-25T10:21:00;94446.25;;;16.63;31.45
79686;BME280;69153;47.918;11.428;2023-04-25T10:23:28;94452.91;;;16.47;31.37
79686;BME280;69153;47.918;11.428;2023-04-25T10:25:55;94464.47;;;15.72;33.02
79686;BME280;69153;47.918;11.428;2023-04-25T10:28:21;94476.06;;;14.55;34.96
79686;BME280;69153;47.918;11.428;2023-04-25T10:31:03;94471.19;;;13.76;37.91
79686;BME280;69153;47.918;11.428;2023-04-25T10:33:33;94475.22;;;13.72;37.12
79686;BME280;69153;47.918;11.428;2023-04-25T10:36:12;94484.34;;;13.56;37.72
79686;BME280;69153;47.918;11.428;2023-04-25T10:38:38;94470.13;;;13.59;37.31
79686;BME280;69153;47.918;11.428;2023-04-25T10:41:09;94483.38;;;13.68;37.91
79686;BME280;69153;47.918;11.428;2023-04-25T10:46:27;94501.75;;;12.82;39.31
79686;BME280;69153;47.918;11.428;2023-04-25T10:48:57;94519.78;;;12.78;40.30
79686;BME280;69153;47.918;11.428;2023-04-25T10:51:30;94540.28;;;11.95;43.46
79686;BME280;69153;47.918;11.428;2023-04-25T10:54:06;94550.84;;;11.68;46.07
79686;BME280;69153;47.918;11.428;2023-04-25T10:56:35;94544.88;;;11.95;46.33
79686;BME280;69153;47.918;11.428;2023-04-25T11:04:02;94560.84;;;12.31;47.17
79686;BME280;69153;47.918;11.428;2023-04-25T11:06:29;94561.75;;;12.19;46.89
79686;BME280;69153;47.918;11.428;2023-04-25T11:09:01;94576.94;;;12.37;46.64
79686;BME280;69153;47.918;11.428;2023-04-25T11:11:29;94575.16;;;12.06;47.68
79686;BME280;69153;47.918;11.428;2023-04-25T11:13:55;94574.06;;;11.86;48.55
79686;BME280;69153;47.918;11.428;2023-04-25T11:16:23;94590.78;;;11.64;48.95
79686;BME280;69153;47.918;11.428;2023-04-25T11:18:49;94584.69;;;11.15;50.03
79686;BME280;69153;47.918;11.428;2023-04-25T11:21:15;94592.19;;;10.94;50.39
79686;BME280;69153;47.918;11.428;2023-04-25T11:23:44;94590.66;;;11.06;50.87
79686;BME280;69153;47.918;11.428;2023-04-25T11:26:10;94596.41;;;11.35;50.72
79686;BME280;69153;47.918;11.428;2023-04-25T11:28:36;94598.53;;;11.19;50.08
79686;BME280;69153;47.918;11.428;2023-04-25T11:31:02;94595.28;;;10.93;51.60
79686;BME280;69153;47.918;11.428;2023-04-25T11:33:29;94600.91;;;10.95;52.04
79686;BME280;69153;47.918;11.428;2023-04-25T11:35:55;94611.63;;;10.91;52.05
79686;BME280;69153;47.918;11.428;2023-04-25T11:38:22;94599.06;;;10.83;53.15
79686;BME280;69153;47.918;11.428;2023-04-25T11:40:53;94605.69;;;10.44;52.64
79686;BME280;69153;47.918;11.428;2023-04-25T11:43:22;94604.53;;;10.66;53.27
79686;BME280;69153;47.918;11.428;2023-04-25T11:45:49;94610.72;;;10.63;54.35
79686;BME280;69153;47.918;11.428;2023-04-25T11:48:16;94598.06;;;10.67;53.65
79686;BME280;69153;47.918;11.428;2023-04-25T11:50:42;94602.69;;;10.98;52.75
79686;BME280;69153;47.918;11.428;2023-04-25T11:53:08;94607.38;;;11.16;53.84
79686;BME280;69153;47.918;11.428;2023-04-25T11:55:34;94594.47;;;11.27;52.51
79686;BME280;69153;47.918;11.428;2023-04-25T11:58:00;94595.88;;;11.50;51.60
79686;BME280;69153;47.918;11.428;2023-04-25T12:00:27;94598.97;;;11.79;52.66
79686;BME280;69153;47.918;11.428;2023-04-25T12:02:54;94599.03;;;12.06;51.54
79686;BME280;69153;47.918;11.428;2023-04-25T12:05:28;94598.91;;;12.28;49.37
79686;BME280;69153;47.918;11.428;2023-04-25T12:07:54;94592.72;;;12.49;49.78
79686;BME280;69153;47.918;11.428;2023-04-25T12:10:21;94597.16;;;12.43;48.80
79686;BME280;69153;47.918;11.428;2023-04-25T12:12:48;94599.69;;;12.56;51.72
79686;BME280;69153;47.918;11.428;2023-04-25T12:15:17;94592.41;;;12.75;49.46
79686;BME280;69153;47.918;11.428;2023-04-25T12:17:49;94584.78;;;13.37;49.68
79686;BME280;69153;47.918;11.428;2023-04-25T12:20:18;94593.88;;;13.97;46.97
79686;BME280;69153;47.918;11.428;2023-04-25T12:22:46;94581.75;;;14.19;48.56
79686;BME280;69153;47.918;11.428;2023-04-25T12:25:17;94578.25;;;14.13;46.70
79686;BME280;69153;47.918;11.428;2023-04-25T12:28:22;94580.16;;;13.89;48.67
79686;BME280;69153;47.918;11.428;2023-04-25T12:30:59;94582.84;;;13.47;48.58
79686;BME280;69153;47.918;11.428;2023-04-25T12:33:27;94583.94;;;13.31;48.51
79686;BME280;69153;47.918;11.428;2023-04-25T12:35:54;94586.19;;;13.23;48.92
79686;BME280;69153;47.918;11.428;2023-04-25T12:38:25;94593.16;;;12.94;48.11
79686;BME280;69153;47.918;11.428;2023-04-25T12:40:51;94598.06;;;12.68;49.15
79686;BME280;69153;47.918;11.428;2023-04-25T12:43:16;94592.91;;;12.46;49.47
79686;BME280;69153;47.918;11.428;2023-04-25T12:45:43;94601.44;;;12.41;49.91
79686;BME280;69153;47.918;11.428;2023-04-25T12:48:10;94601.28;;;12.35;51.20
79686;BME280;69153;47.918;11.428;2023-04-25T12:50:35;94602.44;;;12.34;50.89
79686;BME280;69153;47.918;11.428;2023-04-25T12:53:01;94606.00;;;12.40;50.76
79686;BME280;69153;47.918;11.428;2023-04-25T12:55:27;94604.09;;;12.32;52.07
79686;BME280;69153;47.918;11.428;2023-04-25T12:57:53;94600.84;;;12.37;52.71